createdAt,value
2023-01-10T00:02:07.012Z,12.27
2023-01-10T00:04:34.717Z,13.80
2023-01-10T00:07:02.567Z,17.90
2023-01-10T00:09:30.186Z,24.13
2023-01-10T00:12:15.355Z,18.70
2023-01-10T00:14:44.263Z,23.83
2023-01-10T00:19:39.355Z,14.60
2023-01-10T00:22:19.474Z,13.27
2023-01-10T00:24:47.057Z,18.67
2023-01-10T00:27:20.562Z,13.70
2023-01-10T00:29:52.081Z,19.07
2023-01-10T00:32:20.277Z,13.37
2023-01-10T00:34:48.031Z,15.40
2023-01-10T00:37:15.995Z,12.60
2023-01-10T00:39:43.615Z,17.15
2023-01-10T00:42:30.092Z,19.23
2023-01-10T00:44:59.059Z,22.97
2023-01-10T00:47:26.644Z,15.53
2023-01-10T00:49:54.206Z,12.67
2023-01-10T00:52:21.754Z,11.70
2023-01-10T00:54:49.392Z,21.17
2023-01-10T00:57:16.979Z,14.77
2023-01-10T00:59:45.482Z,20.60
2023-01-10T01:02:14.616Z,16.38
2023-01-10T01:04:42.368Z,17.93
2023-01-10T01:07:09.903Z,14.73
2023-01-10T01:09:58.357Z,15.77
2023-01-10T01:12:25.933Z,10.55
2023-01-10T01:14:53.695Z,12.70
2023-01-10T01:17:22.692Z,17.37
2023-01-10T01:19:50.346Z,18.50
2023-01-10T01:22:18.013Z,16.03
2023-01-10T01:24:45.916Z,14.93
2023-01-10T01:27:13.550Z,15.60
2023-01-10T01:29:43.463Z,22.37
2023-01-10T01:32:11.820Z,13.93
2023-01-10T01:34:41.073Z,17.35
2023-01-10T01:37:08.721Z,16.73
2023-01-10T01:39:36.367Z,22.77
2023-01-10T01:42:04.017Z,19.57
2023-01-10T01:44:34.003Z,17.73
2023-01-10T01:47:06.113Z,22.13
2023-01-10T01:49:36.159Z,26.13
2023-01-10T01:52:09.699Z,19.83
2023-01-10T01:54:38.052Z,20.33
2023-01-10T01:57:11.956Z,14.75
2023-01-10T01:59:42.931Z,32.37
2023-01-10T02:02:18.015Z,16.67
2023-01-10T02:04:50.847Z,19.63
2023-01-10T02:07:20.547Z,16.17
2023-01-10T02:09:52.793Z,17.33
2023-01-10T02:12:21.280Z,21.10
2023-01-10T02:14:51.547Z,23.08
2023-01-10T02:17:19.204Z,21.27
2023-01-10T02:19:52.988Z,19.80
2023-01-10T02:22:53.598Z,19.93
2023-01-10T02:25:51.885Z,19.00
2023-01-10T02:29:12.461Z,30.88
2023-01-10T02:32:10.890Z,15.37
2023-01-10T02:34:47.193Z,16.10
2023-01-10T02:37:21.069Z,22.37
2023-01-10T02:39:57.556Z,18.50
2023-01-10T02:42:31.239Z,23.47
2023-01-10T02:45:04.298Z,25.87
2023-01-10T02:47:37.570Z,20.33
2023-01-10T02:50:30.130Z,19.57
2023-01-10T02:53:00.696Z,18.03
2023-01-10T02:55:37.177Z,21.70
2023-01-10T02:58:16.327Z,18.50
2023-01-10T03:00:51.077Z,18.03
2023-01-10T03:03:33.266Z,20.03
2023-01-10T03:06:17.682Z,18.67
2023-01-10T03:08:52.178Z,18.27
2023-01-10T03:11:39.990Z,21.20
2023-01-10T03:14:13.480Z,18.67
2023-01-10T03:16:43.244Z,19.93
2023-01-10T03:19:16.600Z,16.63
2023-01-10T03:21:45.379Z,24.57
2023-01-10T03:26:48.859Z,24.77
2023-01-10T03:29:23.567Z,16.63
2023-01-10T03:31:55.825Z,22.83
2023-01-10T03:34:25.952Z,27.03
2023-01-10T03:37:00.664Z,26.03
2023-01-10T03:39:35.920Z,18.70
2023-01-10T03:42:08.970Z,23.17
2023-01-10T03:44:46.607Z,33.10
2023-01-10T03:47:21.924Z,22.70
2023-01-10T03:49:57.484Z,24.40
2023-01-10T03:52:26.364Z,22.33
2023-01-10T03:57:23.880Z,19.48
2023-01-10T03:59:54.258Z,29.63
2023-01-10T04:02:22.294Z,20.67
2023-01-10T04:04:51.573Z,20.05
2023-01-10T04:07:19.223Z,22.87
2023-01-10T04:09:46.801Z,17.57
2023-01-10T04:12:14.381Z,20.77
2023-01-10T04:14:42.051Z,16.83
2023-01-10T04:17:09.822Z,30.07
2023-01-10T04:19:37.453Z,17.57
2023-01-10T04:22:06.792Z,18.80
2023-01-10T04:24:34.729Z,20.80
2023-01-10T04:27:02.522Z,26.50
2023-01-10T04:29:30.151Z,26.23
2023-01-10T04:31:58.131Z,21.13
2023-01-10T04:34:25.826Z,21.33
2023-01-10T04:36:53.524Z,27.57
2023-01-10T04:39:22.599Z,23.13
2023-01-10T04:41:50.470Z,26.37
2023-01-10T04:44:18.029Z,24.50
2023-01-10T04:46:45.631Z,22.83
2023-01-10T04:49:13.332Z,24.93
2023-01-10T04:51:41.045Z,16.07
2023-01-10T04:54:08.635Z,20.50
2023-01-10T04:56:37.733Z,22.73
2023-01-10T04:59:06.517Z,25.07
2023-01-10T05:06:31.164Z,23.58
2023-01-10T05:08:59.031Z,21.27
2023-01-10T05:11:26.586Z,22.27
2023-01-10T05:13:55.619Z,18.50
2023-01-10T05:16:24.046Z,26.87
2023-01-10T05:18:51.769Z,27.67
2023-01-10T05:21:19.815Z,22.80
2023-01-10T05:23:47.674Z,15.27
2023-01-10T05:26:17.345Z,20.97
2023-01-10T05:28:45.289Z,24.73
2023-01-10T05:31:16.577Z,24.08
2023-01-10T05:33:46.583Z,25.10
2023-01-10T05:36:14.364Z,27.10
2023-01-10T05:38:42.522Z,26.20
2023-01-10T05:41:10.314Z,22.15
2023-01-10T05:43:37.949Z,25.17
2023-01-10T05:46:06.054Z,25.97
2023-01-10T05:48:35.168Z,21.23
2023-01-10T05:51:02.796Z,27.40
2023-01-10T05:53:30.713Z,23.23
2023-01-10T05:56:00.169Z,23.10
2023-01-10T05:58:29.621Z,27.17
2023-01-10T06:00:58.153Z,29.73
2023-01-10T06:03:27.087Z,28.20
2023-01-10T06:08:24.142Z,23.57
2023-01-10T06:10:51.857Z,18.38
2023-01-10T06:13:19.489Z,26.13
2023-01-10T06:15:47.216Z,36.73
2023-01-10T06:18:15.066Z,21.53
2023-01-10T06:20:43.618Z,32.33
2023-01-10T06:23:12.760Z,26.60
2023-01-10T06:25:41.711Z,27.27
2023-01-10T06:28:10.096Z,22.77
2023-01-10T06:30:38.181Z,26.02
2023-01-10T06:33:07.108Z,26.23
2023-01-10T06:38:03.015Z,18.10
2023-01-10T06:40:32.048Z,25.27
2023-01-10T06:43:00.239Z,28.47
2023-01-10T06:45:28.057Z,25.15
2023-01-10T06:47:55.607Z,27.03
2023-01-10T06:50:23.885Z,22.50
2023-01-10T06:52:57.556Z,22.48
2023-01-10T06:55:25.469Z,24.43
2023-01-10T06:57:58.324Z,26.02
2023-01-10T07:00:27.474Z,19.40
2023-01-10T07:02:56.292Z,29.70
2023-01-10T07:07:51.555Z,23.53
2023-01-10T07:10:19.401Z,28.43
2023-01-10T07:12:47.078Z,22.87
2023-01-10T07:15:16.260Z,18.97
2023-01-10T07:17:43.987Z,31.03
2023-01-10T07:20:13.055Z,26.73
2023-01-10T07:22:40.819Z,27.60
2023-01-10T07:25:09.375Z,21.43
2023-01-10T07:27:37.339Z,23.13
2023-01-10T07:30:05.759Z,31.92
2023-01-10T07:32:35.135Z,20.83
2023-01-10T07:35:02.939Z,32.60
2023-01-10T07:37:30.637Z,30.87
2023-01-10T07:39:58.204Z,28.60
2023-01-10T07:42:25.782Z,20.30
2023-01-10T07:44:53.374Z,25.43
2023-01-10T07:47:20.961Z,29.90
2023-01-10T07:49:49.887Z,31.17
2023-01-10T07:52:17.524Z,31.10
2023-01-10T07:54:45.118Z,27.67
2023-01-10T07:57:12.707Z,28.77
2023-01-10T07:59:40.298Z,24.23
2023-01-10T08:02:09.648Z,26.63
2023-01-10T08:04:38.198Z,27.97
2023-01-10T08:07:07.296Z,34.17
2023-01-10T08:09:34.951Z,26.47
2023-01-10T08:12:02.539Z,24.83
2023-01-10T08:14:30.182Z,25.10
2023-01-10T08:16:57.802Z,27.20
2023-01-10T08:19:25.377Z,36.80
2023-01-10T08:21:53.013Z,24.87
2023-01-10T08:24:21.948Z,30.30
2023-01-10T08:26:49.649Z,36.90
2023-01-10T08:29:17.450Z,32.43
2023-01-10T08:31:45.097Z,23.50
2023-01-10T08:34:14.021Z,22.53
2023-01-10T08:36:41.661Z,29.20
2023-01-10T08:39:09.663Z,30.43
2023-01-10T08:41:39.582Z,27.80
2023-01-10T08:44:07.198Z,38.10
2023-01-10T08:46:34.887Z,28.73
2023-01-10T08:49:02.527Z,29.73
2023-01-10T08:51:30.135Z,32.30
2023-01-10T08:53:57.829Z,24.07
2023-01-10T08:56:25.471Z,26.50
2023-01-10T08:58:54.506Z,29.43
2023-01-10T09:01:22.246Z,34.43
2023-01-10T09:03:49.986Z,27.93
2023-01-10T09:06:17.831Z,31.70
2023-01-10T09:08:45.416Z,36.80
2023-01-10T09:11:13.133Z,28.47
2023-01-10T09:13:42.190Z,27.67
2023-01-10T09:16:11.539Z,29.03
2023-01-10T09:18:39.367Z,31.70
2023-01-10T09:21:07.135Z,27.77
2023-01-10T09:23:36.916Z,30.97
2023-01-10T09:26:04.755Z,30.53
2023-01-10T09:28:32.501Z,31.50
2023-01-10T09:31:01.027Z,27.10
2023-01-10T09:33:38.040Z,26.23
2023-01-10T09:36:15.352Z,27.90
2023-01-10T09:38:43.028Z,25.73
2023-01-10T09:41:43.706Z,26.60
2023-01-10T09:44:21.419Z,28.20
2023-01-10T09:46:59.898Z,33.20
2023-01-10T09:49:44.098Z,30.33
2023-01-10T09:52:20.817Z,24.70
2023-01-10T09:54:51.219Z,28.60
2023-01-10T09:57:22.137Z,35.97
2023-01-10T09:59:51.646Z,29.17
2023-01-10T10:02:27.578Z,27.47
2023-01-10T10:05:08.078Z,34.03
2023-01-10T10:07:35.836Z,21.73
2023-01-10T10:10:05.324Z,27.03
2023-01-10T10:12:42.588Z,34.33
2023-01-10T10:15:20.340Z,23.80
2023-01-10T10:17:54.068Z,27.73
2023-01-10T10:20:37.018Z,28.60
2023-01-10T10:23:35.820Z,24.77
2023-01-10T10:26:08.664Z,27.10
2023-01-10T10:29:03.835Z,29.33
2023-01-10T10:31:49.842Z,20.47
2023-01-10T10:34:25.670Z,24.27
2023-01-10T10:36:58.067Z,25.57
2023-01-10T10:39:36.811Z,27.37
2023-01-10T10:44:40.629Z,26.97
2023-01-10T10:47:15.716Z,24.63
2023-01-10T10:49:47.213Z,30.90
2023-01-10T10:52:23.175Z,31.70
2023-01-10T10:54:50.956Z,28.30
2023-01-10T10:57:19.968Z,17.10
2023-01-10T10:59:49.396Z,30.57
2023-01-10T11:02:24.535Z,28.80
2023-01-10T11:04:54.216Z,22.00
2023-01-10T11:07:23.503Z,28.20
2023-01-10T11:09:56.532Z,21.00
2023-01-10T11:12:36.136Z,28.57
2023-01-10T11:15:04.345Z,21.73
2023-01-10T11:17:33.802Z,25.98
2023-01-10T11:20:03.558Z,23.33
2023-01-10T11:22:39.428Z,20.23
2023-01-10T11:25:16.493Z,23.63
2023-01-10T11:27:48.767Z,19.00
2023-01-10T11:30:22.257Z,21.13
2023-01-10T11:32:54.339Z,26.63
2023-01-10T11:35:26.534Z,23.40
2023-01-10T11:38:03.529Z,18.30
2023-01-10T11:40:32.484Z,26.73
2023-01-10T11:43:01.743Z,25.07
2023-01-10T11:45:32.489Z,27.20
2023-01-10T11:48:09.222Z,19.87
2023-01-10T11:50:40.459Z,21.87
2023-01-10T11:53:32.477Z,23.33
2023-01-10T11:56:00.315Z,18.53
2023-01-10T11:58:32.525Z,22.13
2023-01-10T12:01:00.270Z,24.90
2023-01-10T12:03:32.636Z,22.00
2023-01-10T12:06:02.078Z,22.77
2023-01-10T12:08:36.534Z,25.50
2023-01-10T12:11:07.078Z,18.70
2023-01-10T12:13:48.175Z,23.90
2023-01-10T12:16:22.173Z,17.47
2023-01-10T12:18:51.660Z,17.40
2023-01-10T12:21:26.668Z,17.97
2023-01-10T12:23:59.607Z,21.50
2023-01-10T12:26:30.748Z,18.57
2023-01-10T12:29:03.402Z,19.63
2023-01-10T12:31:31.994Z,18.33
2023-01-10T12:34:04.879Z,21.05
2023-01-10T12:36:48.499Z,18.17
2023-01-10T12:39:23.113Z,18.27
2023-01-10T12:42:19.980Z,22.07
2023-01-10T12:44:52.601Z,22.40
2023-01-10T12:47:33.113Z,22.37
2023-01-10T12:50:05.927Z,16.10
2023-01-10T12:52:42.673Z,22.80
2023-01-10T12:55:16.390Z,16.20
2023-01-10T12:57:51.608Z,18.57
2023-01-10T13:00:25.202Z,21.60
2023-01-10T13:02:56.598Z,20.93
2023-01-10T13:05:25.714Z,19.90
2023-01-10T13:07:57.144Z,21.20
2023-01-10T13:10:27.902Z,21.57
2023-01-10T13:13:00.313Z,37.53
2023-01-10T13:15:31.306Z,16.60
2023-01-10T13:18:04.277Z,21.63
2023-01-10T13:20:43.279Z,19.37
2023-01-10T13:23:22.385Z,25.17
2023-01-10T13:26:00.245Z,18.83
2023-01-10T13:28:30.033Z,23.08
2023-01-10T13:31:00.978Z,19.97
2023-01-10T13:33:30.955Z,21.97
2023-01-10T13:36:08.440Z,20.83
2023-01-10T13:38:44.819Z,16.03
2023-01-10T13:41:33.837Z,27.10
2023-01-10T13:44:04.037Z,19.23
2023-01-10T13:46:46.036Z,18.37
2023-01-10T13:49:26.734Z,19.43
2023-01-10T13:52:29.668Z,17.07
2023-01-10T13:54:58.661Z,24.83
2023-01-10T13:57:52.105Z,20.20
2023-01-10T14:00:44.643Z,18.73
2023-01-10T14:03:41.055Z,24.87
2023-01-10T14:06:15.234Z,29.03
2023-01-10T14:08:49.855Z,24.10
2023-01-10T14:11:17.783Z,23.50
2023-01-10T14:13:52.843Z,17.67
2023-01-10T14:16:32.848Z,25.57
2023-01-10T14:19:01.619Z,17.33
2023-01-10T14:26:32.216Z,22.50
2023-01-10T14:29:06.781Z,24.10
2023-01-10T14:31:36.962Z,26.17
2023-01-10T14:34:06.090Z,24.37
2023-01-10T14:36:46.143Z,27.20
2023-01-10T14:39:16.676Z,24.50
2023-01-10T14:41:46.918Z,26.47
2023-01-10T14:44:20.711Z,22.67
2023-01-10T14:46:49.966Z,22.37
2023-01-10T14:49:26.548Z,22.27
2023-01-10T14:52:00.692Z,27.73
2023-01-10T14:54:29.891Z,26.20
2023-01-10T14:56:58.459Z,31.53
2023-01-10T14:59:29.727Z,24.23
2023-01-10T15:01:59.081Z,24.87
2023-01-10T15:04:29.089Z,22.17
2023-01-10T15:07:00.007Z,26.90
2023-01-10T15:09:28.669Z,23.60
2023-01-10T15:12:00.553Z,30.25
2023-01-10T15:14:31.269Z,18.73
2023-01-10T15:17:02.524Z,23.13
2023-01-10T15:19:32.972Z,30.30
2023-01-10T15:22:00.686Z,30.83
2023-01-10T15:24:34.283Z,29.63
2023-01-10T15:27:04.296Z,20.50
2023-01-10T15:29:34.561Z,26.70
2023-01-10T15:32:10.645Z,34.27
2023-01-10T15:34:38.992Z,27.83
2023-01-10T15:37:08.297Z,26.52
2023-01-10T15:39:38.304Z,18.77
2023-01-10T15:42:09.753Z,25.53
2023-01-10T15:44:41.023Z,26.20
2023-01-10T15:47:41.505Z,25.23
2023-01-10T15:50:25.991Z,26.80
2023-01-10T15:52:56.200Z,20.33
2023-01-10T15:55:39.571Z,28.10
2023-01-10T15:58:14.723Z,24.20
2023-01-10T16:00:46.786Z,25.53
2023-01-10T16:03:23.137Z,24.60
2023-01-10T16:05:55.558Z,25.03
2023-01-10T16:08:26.309Z,23.17
2023-01-10T16:10:56.728Z,22.03
2023-01-10T16:13:31.620Z,18.00
2023-01-10T16:16:03.254Z,14.47
2023-01-10T16:18:30.992Z,17.00
2023-01-10T16:21:02.478Z,23.80
2023-01-10T16:23:35.307Z,15.70
2023-01-10T16:26:05.817Z,17.83
2023-01-10T16:28:36.106Z,17.30
2023-01-10T16:31:07.110Z,15.20
2023-01-10T16:33:37.491Z,12.40
2023-01-10T16:36:14.214Z,21.03
2023-01-10T16:38:41.855Z,14.93
2023-01-10T16:41:25.858Z,14.50
2023-01-10T16:43:53.879Z,15.00
2023-01-10T16:46:23.478Z,16.60
2023-01-10T16:48:52.739Z,13.27
2023-01-10T16:51:23.460Z,11.37
2023-01-10T16:53:52.152Z,12.23
2023-01-10T16:56:22.050Z,10.77
2023-01-10T16:58:50.426Z,11.73
2023-01-10T17:01:20.155Z,13.98
2023-01-10T17:03:49.298Z,9.03
2023-01-10T17:06:17.497Z,10.37
2023-01-10T17:08:46.012Z,9.55
2023-01-10T17:11:19.195Z,9.13
2023-01-10T17:13:47.549Z,11.30
2023-01-10T17:16:19.320Z,10.13
2023-01-10T17:18:48.876Z,11.83
2023-01-10T17:21:18.953Z,11.20
2023-01-10T17:23:47.471Z,10.70
2023-01-10T17:26:18.097Z,7.57
2023-01-10T17:28:48.399Z,9.20
2023-01-10T17:31:17.215Z,10.17
2023-01-10T17:36:14.069Z,9.20
2023-01-10T17:38:43.207Z,10.77
2023-01-10T17:41:11.473Z,12.20
2023-01-10T17:43:42.048Z,12.20
2023-01-10T17:46:10.984Z,14.43
2023-01-10T17:48:39.059Z,12.03
2023-01-10T17:51:07.610Z,12.75
2023-01-10T17:53:36.786Z,12.15
2023-01-10T17:56:07.000Z,13.97
2023-01-10T17:58:36.594Z,14.87
2023-01-10T18:01:05.244Z,15.97
2023-01-10T18:03:33.127Z,14.48
2023-01-10T18:06:00.935Z,17.20
2023-01-10T18:08:28.701Z,19.83
2023-01-10T18:11:01.629Z,17.23
2023-01-10T18:13:31.210Z,17.20
2023-01-10T18:16:00.100Z,19.73
2023-01-10T18:18:28.394Z,20.40
2023-01-10T18:20:58.111Z,22.65
2023-01-10T18:23:29.383Z,26.53
2023-01-10T18:26:00.669Z,21.70
2023-01-10T18:28:40.635Z,23.07
2023-01-10T18:31:11.278Z,22.33
2023-01-10T18:33:39.668Z,20.07
2023-01-10T18:36:09.516Z,19.27
2023-01-10T18:38:37.859Z,20.53
2023-01-10T18:41:05.958Z,25.25
2023-01-10T18:43:35.159Z,20.23
2023-01-10T18:46:05.197Z,20.57
2023-01-10T18:48:33.225Z,17.93
2023-01-10T18:51:02.677Z,22.73
2023-01-10T18:53:30.875Z,21.23
2023-01-10T18:56:00.465Z,22.17
2023-01-10T18:58:29.841Z,25.93
2023-01-10T19:00:59.256Z,20.13
2023-01-10T19:03:26.944Z,18.03
2023-01-10T19:05:54.758Z,18.40
2023-01-10T19:08:22.487Z,17.53
2023-01-10T19:11:12.000Z,18.03
2023-01-10T19:13:38.219Z,20.05
2023-01-10T19:16:12.331Z,20.15
2023-01-10T19:18:40.248Z,18.43
2023-01-10T19:21:18.890Z,16.97
2023-01-10T19:23:48.855Z,17.80
2023-01-10T19:26:17.323Z,16.97
2023-01-10T19:28:46.433Z,19.35
2023-01-10T19:31:17.763Z,19.73
2023-01-10T19:33:47.675Z,18.20
2023-01-10T19:36:16.572Z,17.10
2023-01-10T19:41:13.911Z,19.63
2023-01-10T19:43:41.759Z,15.13
2023-01-10T19:46:11.291Z,15.23
2023-01-10T19:48:40.483Z,16.53
2023-01-10T19:51:09.653Z,17.40
2023-01-10T19:53:39.179Z,20.70
2023-01-10T19:56:09.824Z,20.67
2023-01-10T19:58:38.902Z,21.57
2023-01-10T20:01:11.570Z,18.40
2023-01-10T20:03:42.302Z,18.83
2023-01-10T20:06:16.808Z,18.37
2023-01-10T20:08:45.449Z,19.97
2023-01-10T20:11:13.293Z,20.90
2023-01-10T20:13:44.754Z,21.83
2023-01-10T20:16:13.585Z,20.37
2023-01-10T20:18:43.307Z,17.60
2023-01-10T20:21:12.987Z,19.07
2023-01-10T20:23:42.582Z,22.17
2023-01-10T20:26:13.267Z,19.93
2023-01-10T20:28:42.074Z,16.10
2023-01-10T20:36:09.661Z,21.03
2023-01-10T20:38:38.724Z,20.07
2023-01-10T20:41:09.255Z,16.67
2023-01-10T20:43:37.157Z,17.97
2023-01-10T20:46:06.848Z,18.67
2023-01-10T20:48:35.267Z,17.27
2023-01-10T20:51:03.360Z,21.42
2023-01-10T20:53:33.020Z,20.17
2023-01-10T20:56:03.801Z,22.03
2023-01-10T20:58:32.853Z,24.73
2023-01-10T21:01:00.736Z,22.77
2023-01-10T21:03:29.358Z,21.55
2023-01-10T21:05:58.705Z,24.38
2023-01-10T21:08:29.678Z,27.77
2023-01-10T21:10:59.450Z,27.80
2023-01-10T21:13:27.962Z,25.57
2023-01-10T21:15:57.344Z,26.75
2023-01-10T21:18:27.298Z,24.47
2023-01-10T21:20:56.403Z,26.67
2023-01-10T21:23:26.217Z,22.97
2023-01-10T21:25:54.906Z,20.87
2023-01-10T21:28:24.244Z,21.90
2023-01-10T21:30:53.998Z,24.07
2023-01-10T21:33:22.044Z,20.57
2023-01-10T21:35:53.595Z,22.10
2023-01-10T21:38:21.542Z,24.07
2023-01-10T21:40:49.254Z,19.88
2023-01-10T21:43:17.082Z,23.47
2023-01-10T21:45:46.291Z,20.47
2023-01-10T21:48:14.250Z,20.57
2023-01-10T21:50:42.947Z,21.27
2023-01-10T21:53:11.148Z,22.33
2023-01-10T21:55:39.285Z,19.30
2023-01-10T21:58:07.000Z,20.92
2023-01-10T22:00:34.926Z,20.10
2023-01-10T22:03:04.343Z,20.02
2023-01-10T22:05:32.613Z,22.40
2023-01-10T22:08:00.380Z,23.00
2023-01-10T22:10:28.142Z,21.77
2023-01-10T22:12:55.797Z,24.77
2023-01-10T22:15:23.797Z,22.80
2023-01-10T22:17:51.494Z,23.45
2023-01-10T22:20:20.688Z,20.77
2023-01-10T22:22:48.449Z,22.17
2023-01-10T22:25:16.338Z,20.53
2023-01-10T22:27:45.230Z,19.45
2023-01-10T22:30:14.767Z,21.07
2023-01-10T22:32:42.431Z,20.87
2023-01-10T22:35:13.718Z,22.67
2023-01-10T22:37:42.853Z,25.20
2023-01-10T22:40:12.043Z,22.43
2023-01-10T22:42:39.830Z,24.90
2023-01-10T22:45:08.322Z,25.07
2023-01-10T22:47:36.059Z,26.52
2023-01-10T22:50:03.740Z,23.30
2023-01-10T22:52:31.577Z,27.23
2023-01-10T22:55:01.048Z,26.40
2023-01-10T22:57:30.752Z,27.63
2023-01-10T23:00:00.584Z,23.50
2023-01-10T23:02:29.267Z,25.77
2023-01-10T23:07:24.577Z,26.33
2023-01-10T23:09:52.168Z,28.20
2023-01-10T23:12:21.214Z,25.30
2023-01-10T23:14:48.956Z,27.37
2023-01-10T23:17:16.617Z,22.47
2023-01-10T23:19:44.239Z,21.70
2023-01-10T23:22:11.859Z,24.27
2023-01-10T23:24:42.526Z,24.23
2023-01-10T23:27:10.393Z,23.37
2023-01-10T23:29:39.442Z,22.00
2023-01-10T23:32:07.527Z,26.37
2023-01-10T23:34:35.357Z,24.48
2023-01-10T23:37:03.099Z,31.93
2023-01-10T23:39:30.662Z,33.13
2023-01-10T23:41:58.209Z,22.53
2023-01-10T23:44:28.657Z,26.10
2023-01-10T23:46:57.750Z,21.90
2023-01-10T23:49:25.309Z,24.27
2023-01-10T23:51:52.862Z,25.53
2023-01-10T23:54:20.440Z,25.83
2023-01-10T23:56:48.060Z,21.20
2023-01-10T23:59:15.643Z,22.40
